Time;durP1;ratioP1;P1;durP2;ratioP2;P2;SDS_P1;SDS_P2;PMS_P1;PMS_P2;Temp;Humidity;BMP_temperature;BMP_pressure;BME280_temperature;BME280_humidity;BME280_pressure;Samples;Min_cycle;Max_cycle;Signal;HPM_P1;HPM_P2
2023/02/13 00:01:53;;;;;;;268.77;46.83;;;1.40;99.90;;;;;;4151384;28;20236;-70
2023/02/13 00:03:53;;;;;;;131.53;26.17;;;1.30;99.90;;;;;;4162146;28;20434;-68
2023/02/13 00:05:54;;;;;;;375.27;54.10;;;1.30;99.90;;;;;;4156179;28;20495;-69
2023/02/13 00:07:55;;;;;;;212.63;47.90;;;1.20;99.90;;;;;;4158263;28;20185;-69
2023/02/13 00:09:55;;;;;;;142.03;34.40;;;1.00;99.90;;;;;;4158082;28;20586;-68
2023/02/13 00:11:56;;;;;;;309.53;46.47;;;1.00;99.90;;;;;;4155009;28;20277;-68
2023/02/13 00:13:58;;;;;;;116.77;30.93;;;1.00;99.90;;;;;;4154262;28;20190;-66
2023/02/13 00:16:01;;;;;;;187.60;32.37;;;1.00;99.90;;;;;;4148089;28;21078;-68
2023/02/13 00:18:54;;;;;;;171.47;37.37;;;1.10;99.90;;;;;;4154042;28;20580;-68
2023/02/13 00:21:05;;;;;;;230.47;40.97;;;1.20;99.90;;;;;;4108270;28;20495;-69
2023/02/13 00:23:06;;;;;;;104.93;24.87;;;1.10;99.90;;;;;;4157924;28;20424;-68
2023/02/13 00:25:07;;;;;;;109.87;27.23;;;1.10;99.90;;;;;;4161209;28;21007;-69
2023/02/13 00:27:08;;;;;;;231.80;41.77;;;1.10;99.90;;;;;;4154851;28;20789;-69
2023/02/13 00:29:09;;;;;;;163.93;41.33;;;1.00;99.90;;;;;;4154264;28;20464;-70
2023/02/13 00:31:14;;;;;;;198.10;45.30;;;1.00;99.90;;;;;;4156033;28;20412;-69
2023/02/13 00:33:15;;;;;;;271.13;34.50;;;1.00;99.90;;;;;;4155828;28;20197;-69
2023/02/13 00:35:16;;;;;;;321.93;42.33;;;1.00;99.90;;;;;;4154291;28;21053;-69
2023/02/13 00:37:16;;;;;;;192.77;40.43;;;0.90;99.90;;;;;;4154267;28;20621;-69
2023/02/13 00:39:17;;;;;;;191.00;37.57;;;0.90;99.90;;;;;;4154274;28;20220;-69
2023/02/13 00:41:18;;;;;;;80.07;21.53;;;0.80;99.90;;;;;;4154543;28;20290;-69
2023/02/13 00:43:18;;;;;;;80.37;24.23;;;0.80;99.90;;;;;;4154388;28;20184;-68
2023/02/13 00:45:19;;;;;;;128.93;21.77;;;0.80;99.90;;;;;;4154599;28;20196;-69
2023/02/13 00:47:20;;;;;;;67.13;22.90;;;0.70;99.90;;;;;;4155141;28;20204;-69
2023/02/13 00:49:21;;;;;;;57.50;18.63;;;0.70;99.90;;;;;;4154998;28;20211;-69
2023/02/13 00:51:22;;;;;;;96.63;23.67;;;0.60;99.90;;;;;;4154311;28;20852;-69
2023/02/13 00:53:24;;;;;;;48.83;15.20;;;0.50;99.90;;;;;;4154016;28;20192;-68
2023/02/13 00:55:25;;;;;;;186.63;38.03;;;0.40;99.90;;;;;;4153853;28;20574;-69
2023/02/13 00:57:25;;;;;;;108.60;26.90;;;0.40;99.90;;;;;;4155017;28;20432;-68
2023/02/13 00:59:26;;;;;;;156.27;29.03;;;0.30;99.90;;;;;;4153599;28;20247;-69
2023/02/13 01:01:27;;;;;;;47.37;15.93;;;0.20;99.90;;;;;;4154022;28;20185;-70
2023/02/13 01:03:28;;;;;;;46.63;16.50;;;0.10;99.90;;;;;;4155033;28;20205;-69
2023/02/13 01:05:29;;;;;;;38.77;17.93;;;-0.10;99.90;;;;;;4153890;28;20228;-69
2023/02/13 01:07:29;;;;;;;49.80;18.60;;;-0.10;99.90;;;;;;4155038;28;20276;-69
2023/02/13 01:09:30;;;;;;;35.10;14.70;;;-0.20;99.90;;;;;;4159186;28;20465;-69
2023/02/13 01:11:31;;;;;;;37.07;15.70;;;-0.20;99.90;;;;;;4155227;28;20188;-68
2023/02/13 01:13:32;;;;;;;63.03;17.07;;;-0.20;99.90;;;;;;4153949;28;20202;-68
2023/02/13 01:15:34;;;;;;;105.87;31.23;;;-0.30;99.90;;;;;;4169396;28;20279;-69
2023/02/13 01:17:34;;;;;;;63.80;21.03;;;-0.30;99.90;;;;;;4155018;28;20442;-68
2023/02/13 01:19:35;;;;;;;59.90;18.73;;;-0.40;99.90;;;;;;4154932;28;20953;-69
2023/02/13 01:21:36;;;;;;;48.20;20.33;;;-0.40;99.90;;;;;;4155042;28;20208;-69
2023/02/13 01:23:38;;;;;;;37.83;15.40;;;-0.50;99.90;;;;;;4137303;28;20194;-69
2023/02/13 01:25:40;;;;;;;28.43;12.10;;;-0.60;99.90;;;;;;4153881;28;20193;-69
2023/02/13 01:27:41;;;;;;;38.83;14.97;;;-0.60;99.90;;;;;;4154897;28;20428;-68
2023/02/13 01:29:42;;;;;;;49.47;17.30;;;-0.60;99.90;;;;;;4170358;28;20513;-68
2023/02/13 01:31:42;;;;;;;57.93;18.90;;;-0.60;99.90;;;;;;4155112;28;20197;-69
2023/02/13 01:33:43;;;;;;;131.77;24.30;;;-0.60;99.90;;;;;;4153912;28;20585;-68
2023/02/13 01:35:44;;;;;;;99.47;28.07;;;-0.70;99.90;;;;;;4155211;28;20273;-67
2023/02/13 01:37:44;;;;;;;49.50;19.57;;;-0.80;99.90;;;;;;4154619;28;20675;-68
2023/02/13 01:39:45;;;;;;;36.50;16.13;;;-0.80;99.90;;;;;;4153792;28;20217;-68
2023/02/13 01:41:46;;;;;;;46.30;16.07;;;-0.80;99.90;;;;;;4153639;28;20217;-68
2023/02/13 01:43:50;;;;;;;36.40;14.40;;;-0.80;99.90;;;;;;4153744;28;20185;-68
2023/02/13 01:45:55;;;;;;;48.53;18.27;;;-0.80;99.90;;;;;;4153666;28;20180;-68
2023/02/13 01:48:07;;;;;;;47.17;17.30;;;-0.90;99.90;;;;;;4153286;28;20435;-68
2023/02/13 01:50:26;;;;;;;36.27;15.43;;;-0.90;99.90;;;;;;4153711;28;20466;-67
2023/02/13 01:52:28;;;;;;;37.33;14.57;;;-1.00;99.90;;;;;;4156995;28;20435;-71
2023/02/13 01:54:32;;;;;;;31.23;13.23;;;-1.00;99.90;;;;;;4154566;28;20917;-67
2023/02/13 01:56:40;;;;;;;29.27;13.70;;;-1.00;99.90;;;;;;4137258;28;20449;-68
2023/02/13 01:58:45;;;;;;;31.27;13.23;;;-1.10;99.90;;;;;;4154529;28;20501;-68
2023/02/13 02:00:49;;;;;;;31.53;14.13;;;-1.10;99.90;;;;;;4157426;28;20419;-68
2023/02/13 02:03:13;;;;;;;34.80;14.03;;;-1.00;99.90;;;;;;4155004;28;20935;-67
2023/02/13 02:05:15;;;;;;;28.93;12.80;;;-1.00;99.90;;;;;;4155260;28;20424;-69
2023/02/13 02:07:25;;;;;;;33.90;13.27;;;-1.00;99.90;;;;;;4153858;28;20439;-67
2023/02/13 02:09:31;;;;;;;26.10;12.57;;;-1.00;99.90;;;;;;4145430;28;20459;-68
2023/02/13 02:12:01;;;;;;;31.07;13.03;;;-1.00;99.90;;;;;;4162061;28;20453;-67
2023/02/13 02:14:02;;;;;;;26.43;12.30;;;-1.00;99.90;;;;;;4157877;28;20894;-67
2023/02/13 02:16:03;;;;;;;30.30;13.97;;;-1.00;99.90;;;;;;4157661;28;20493;-67
2023/02/13 02:18:30;;;;;;;31.93;14.67;;;-1.00;99.90;;;;;;4156871;28;20248;-67
2023/02/13 02:21:07;;;;;;;30.37;14.10;;;-1.10;99.90;;;;;;4154092;28;20206;-67
2023/02/13 02:23:39;;;;;;;29.07;12.90;;;-1.10;99.90;;;;;;4154468;28;20457;-67
2023/02/13 02:26:04;;;;;;;34.13;13.47;;;-1.10;99.90;;;;;;4154476;28;20435;-68
2023/02/13 02:28:29;;;;;;;29.87;13.57;;;-1.10;99.90;;;;;;4157315;28;20454;-67
2023/02/13 02:31:28;;;;;;;31.40;13.57;;;-1.20;99.90;;;;;;4156378;28;20431;-68
2023/02/13 02:34:02;;;;;;;26.90;12.00;;;-1.20;99.90;;;;;;4159373;28;20416;-67
2023/02/13 02:36:27;;;;;;;27.13;12.53;;;-1.20;99.90;;;;;;4160115;28;20458;-69
2023/02/13 02:39:09;;;;;;;34.37;13.50;;;-1.20;99.90;;;;;;4157053;28;20474;-68
2023/02/13 02:41:40;;;;;;;26.20;11.80;;;-1.20;99.90;;;;;;4160122;28;20434;-67
2023/02/13 02:44:29;;;;;;;30.57;13.83;;;-1.30;99.90;;;;;;4155979;28;20448;-69
2023/02/13 02:49:57;;;;;;;24.23;12.33;;;-1.40;99.90;;;;;;4141137;28;21262;-68
2023/02/13 02:52:10;;;;;;;28.47;12.43;;;-1.40;99.90;;;;;;4157394;28;20519;-70
2023/02/13 02:57:12;;;;;;;28.63;12.27;;;-1.50;99.90;;;;;;4160566;28;20412;-68
2023/02/13 03:06:43;;;;;;;28.23;12.53;;;-1.50;99.90;;;;;;4155902;28;20427;-69
2023/02/13 03:13:45;;;;;;;28.33;11.37;;;-1.50;99.90;;;;;;4157007;28;20529;-68
2023/02/13 03:23:19;;;;;;;32.43;12.13;;;-1.40;99.90;;;;;;4169514;28;20580;-69
2023/02/13 03:25:34;;;;;;;21.93;10.57;;;-1.50;99.90;;;;;;4161131;28;20437;-68
2023/02/13 03:31:01;;;;;;;26.37;10.73;;;-1.50;99.90;;;;;;4155967;28;20595;-69
2023/02/13 03:33:22;;;;;;;24.30;11.53;;;-1.60;99.90;;;;;;4156504;28;20565;-69
2023/02/13 03:38:54;;;;;;;27.73;12.77;;;-1.60;99.90;;;;;;4155198;28;20505;-68
2023/02/13 03:41:19;;;;;;;25.93;11.87;;;-1.60;99.90;;;;;;4157830;28;20482;-68
2023/02/13 03:43:21;;;;;;;26.67;12.20;;;-1.60;99.90;;;;;;4156755;28;20438;-69
2023/02/13 03:47:55;;;;;;;23.60;11.47;;;-1.60;99.90;;;;;;4158410;28;20502;-69
2023/02/13 03:50:05;;;;;;;24.03;11.40;;;-1.60;99.90;;;;;;4159246;28;20439;-69
2023/02/13 03:52:15;;;;;;;28.43;12.17;;;-1.70;99.90;;;;;;4157571;28;20887;-69
2023/02/13 03:59:12;;;;;;;23.33;10.80;;;-1.70;99.90;;;;;;4158924;28;20566;-68
2023/02/13 04:01:17;;;;;;;25.70;11.30;;;-1.70;99.90;;;;;;4138944;28;20436;-67
2023/02/13 04:04:00;;;;;;;26.63;11.07;;;-1.70;99.90;;;;;;4155013;28;20419;-68
2023/02/13 04:06:08;;;;;;;27.97;11.60;;;-1.70;99.90;;;;;;4153640;28;20465;-69
2023/02/13 04:08:10;;;;;;;25.50;12.60;;;-1.70;99.90;;;;;;4155301;28;20593;-68
2023/02/13 04:10:14;;;;;;;25.27;12.10;;;-1.70;99.90;;;;;;4155862;28;20523;-68
2023/02/13 04:12:30;;;;;;;29.80;11.80;;;-1.70;99.90;;;;;;4155514;28;20454;-68
2023/02/13 04:14:47;;;;;;;30.87;13.50;;;-1.70;99.90;;;;;;4157567;28;20421;-68
2023/02/13 04:16:56;;;;;;;29.40;13.43;;;-1.70;99.90;;;;;;4156028;28;20460;-69
2023/02/13 04:18:58;;;;;;;27.67;13.47;;;-1.70;99.90;;;;;;4154529;28;20562;-68
2023/02/13 04:21:04;;;;;;;30.03;13.70;;;-1.80;99.90;;;;;;4154794;28;20488;-69
2023/02/13 04:23:11;;;;;;;35.07;12.90;;;-1.70;99.90;;;;;;4156232;28;20665;-68
2023/02/13 04:25:14;;;;;;;27.73;11.70;;;-1.80;99.90;;;;;;4141975;28;20512;-71
2023/02/13 04:27:16;;;;;;;30.10;12.67;;;-1.90;99.90;;;;;;4159110;28;20470;-68
2023/02/13 04:29:17;;;;;;;30.97;13.93;;;-1.90;99.90;;;;;;4151856;28;20459;-69
2023/02/13 04:31:17;;;;;;;27.10;12.17;;;-1.80;99.90;;;;;;4171082;28;20478;-68
2023/02/13 04:33:18;;;;;;;27.20;11.50;;;-1.80;99.90;;;;;;4156056;28;20197;-68
2023/02/13 04:35:20;;;;;;;27.30;13.57;;;-1.80;99.90;;;;;;4154730;28;20185;-68
2023/02/13 04:37:20;;;;;;;26.43;12.57;;;-1.80;99.90;;;;;;4154859;28;20236;-68
2023/02/13 04:39:21;;;;;;;30.80;13.60;;;-1.80;99.90;;;;;;4154559;28;20482;-68
2023/02/13 04:41:22;;;;;;;28.43;11.63;;;-1.80;99.90;;;;;;4163229;28;20196;-68
2023/02/13 04:43:24;;;;;;;31.30;15.17;;;-1.80;99.90;;;;;;4156450;28;20287;-68
2023/02/13 04:45:24;;;;;;;44.00;16.43;;;-1.90;99.90;;;;;;4158191;28;20220;-68
2023/02/13 04:47:25;;;;;;;38.30;16.93;;;-1.90;99.90;;;;;;4155705;28;20447;-68
2023/02/13 04:49:26;;;;;;;38.00;16.40;;;-2.00;99.90;;;;;;4155437;28;20671;-68
2023/02/13 04:51:26;;;;;;;33.63;14.73;;;-2.00;99.90;;;;;;4154577;28;20270;-69
2023/02/13 04:53:27;;;;;;;37.57;16.67;;;-2.00;99.90;;;;;;4156083;28;20238;-68
2023/02/13 04:55:29;;;;;;;36.33;15.53;;;-2.00;99.90;;;;;;4155757;28;20180;-68
2023/02/13 04:57:30;;;;;;;31.63;14.90;;;-2.00;99.90;;;;;;4154182;28;20195;-67
2023/02/13 04:59:30;;;;;;;33.37;14.80;;;-2.00;99.90;;;;;;4153341;28;20571;-69
2023/02/13 05:01:31;;;;;;;43.50;19.83;;;-2.00;99.90;;;;;;4137395;28;20181;-68
2023/02/13 05:03:32;;;;;;;44.07;18.83;;;-2.00;99.90;;;;;;4154835;28;20189;-68
2023/02/13 05:05:33;;;;;;;52.27;21.73;;;-1.90;99.90;;;;;;4154939;28;20201;-68
2023/02/13 05:07:34;;;;;;;40.07;17.20;;;-1.90;99.90;;;;;;4153616;28;20180;-68
2023/02/13 05:09:34;;;;;;;61.93;20.17;;;-1.80;99.90;;;;;;4155120;28;20452;-69
2023/02/13 05:11:35;;;;;;;117.47;22.43;;;-1.70;99.90;;;;;;4155016;28;20209;-69
2023/02/13 05:13:36;;;;;;;112.07;23.47;;;-1.60;99.90;;;;;;4153812;28;20216;-69
2023/02/13 05:15:36;;;;;;;195.93;24.33;;;-1.40;99.90;;;;;;4154900;28;20235;-68
2023/02/13 05:17:37;;;;;;;123.60;21.73;;;-1.20;99.90;;;;;;4154711;28;20189;-69
2023/02/13 05:19:38;;;;;;;111.67;20.73;;;-1.00;99.90;;;;;;4154618;28;20213;-68
2023/02/13 05:23:58;;;;;;;69.53;19.17;;;-0.70;99.90;;;;;;4158484;28;20222;-68
2023/02/13 05:25:58;;;;;;;125.03;21.37;;;-0.60;99.90;;;;;;4154792;28;20827;-67
2023/02/13 05:27:59;;;;;;;75.27;18.70;;;-0.60;99.90;;;;;;4154616;28;20259;-69
2023/02/13 05:30:00;;;;;;;99.93;21.20;;;-0.70;99.90;;;;;;4154585;28;20566;-69
2023/02/13 05:32:00;;;;;;;71.97;21.10;;;-0.70;99.90;;;;;;4154553;28;20195;-68
2023/02/13 05:34:01;;;;;;;86.30;20.87;;;-0.80;99.90;;;;;;4154435;28;20261;-68
2023/02/13 05:36:02;;;;;;;92.10;22.37;;;-0.70;99.90;;;;;;4154398;28;20242;-68
2023/02/13 05:38:02;;;;;;;85.37;20.97;;;-0.70;99.90;;;;;;4153950;28;20185;-68
2023/02/13 05:40:03;;;;;;;119.53;19.93;;;-0.70;99.90;;;;;;4153309;28;20653;-68
2023/02/13 05:42:04;;;;;;;70.37;19.67;;;-0.70;99.90;;;;;;4153236;28;20208;-69
2023/02/13 05:44:05;;;;;;;58.67;18.43;;;-0.60;99.90;;;;;;4161290;28;20503;-68
2023/02/13 05:46:08;;;;;;;108.20;25.07;;;-0.50;99.90;;;;;;4157838;28;20208;-68
2023/02/13 05:48:09;;;;;;;67.93;19.77;;;-0.50;99.90;;;;;;4152752;28;20193;-68
2023/02/13 05:50:09;;;;;;;77.40;16.33;;;-0.40;99.90;;;;;;4154267;28;21055;-68
2023/02/13 05:52:10;;;;;;;78.63;17.80;;;-0.30;99.90;;;;;;4136524;28;20194;-68
2023/02/13 05:54:11;;;;;;;175.30;24.30;;;-0.20;99.90;;;;;;4154189;28;20185;-69
2023/02/13 05:56:11;;;;;;;75.80;17.43;;;-0.30;99.90;;;;;;4154095;28;20197;-69
2023/02/13 05:58:12;;;;;;;135.77;25.43;;;-0.40;99.90;;;;;;4153841;28;20201;-68
2023/02/13 06:00:14;;;;;;;78.27;19.20;;;-0.40;99.90;;;;;;4154205;28;20619;-68
2023/02/13 06:02:14;;;;;;;87.60;22.40;;;-0.40;99.90;;;;;;4153766;28;20704;-68
2023/02/13 06:04:15;;;;;;;141.43;21.10;;;-0.40;99.90;;;;;;4154309;28;20440;-68
2023/02/13 06:06:16;;;;;;;71.00;15.93;;;-0.40;99.90;;;;;;4154244;28;20273;-68
2023/02/13 06:08:17;;;;;;;129.47;19.30;;;-0.40;99.90;;;;;;4152535;28;20210;-68
2023/02/13 06:10:18;;;;;;;98.30;22.67;;;-0.30;99.90;;;;;;4154379;28;20439;-68
2023/02/13 06:12:18;;;;;;;93.40;21.30;;;-0.40;99.90;;;;;;4153105;28;20656;-68
2023/02/13 06:14:19;;;;;;;70.50;16.30;;;-0.50;99.90;;;;;;4153079;28;20189;-68
2023/02/13 06:16:21;;;;;;;200.73;24.37;;;-0.40;99.90;;;;;;4154357;28;20193;-68
2023/02/13 06:18:22;;;;;;;114.90;26.13;;;-0.40;99.90;;;;;;4153977;28;20221;-68
2023/02/13 06:20:23;;;;;;;56.70;18.27;;;-0.50;99.90;;;;;;4152997;28;20458;-68
2023/02/13 06:22:23;;;;;;;124.73;24.63;;;-0.50;99.90;;;;;;4154268;28;20436;-69
2023/02/13 06:24:24;;;;;;;131.83;21.90;;;-0.40;99.90;;;;;;4152988;28;20570;-68
2023/02/13 06:26:25;;;;;;;111.97;20.83;;;-0.30;99.90;;;;;;4153009;28;20193;-68
2023/02/13 06:28:25;;;;;;;73.57;19.60;;;-0.30;99.90;;;;;;4153977;28;20217;-69
2023/02/13 06:30:26;;;;;;;85.33;19.10;;;-0.40;99.90;;;;;;4154257;28;20200;-68
2023/02/13 06:32:27;;;;;;;115.17;23.97;;;-0.30;99.90;;;;;;4157609;28;20744;-68
2023/02/13 06:34:27;;;;;;;122.80;24.57;;;-0.30;99.90;;;;;;4155186;28;20603;-68
2023/02/13 06:36:29;;;;;;;93.47;19.33;;;-0.30;99.90;;;;;;4152748;28;20180;-67
2023/02/13 06:38:30;;;;;;;79.23;19.67;;;-0.30;99.90;;;;;;4152313;28;20304;-68
2023/02/13 06:40:31;;;;;;;125.20;27.27;;;-0.30;99.90;;;;;;4153928;28;20929;-68
2023/02/13 06:42:32;;;;;;;37.20;14.73;;;-0.30;99.90;;;;;;4154149;28;20424;-69
2023/02/13 06:44:33;;;;;;;125.43;20.27;;;-0.30;99.90;;;;;;4154081;28;20193;-68
2023/02/13 06:46:33;;;;;;;102.00;19.90;;;-0.20;99.90;;;;;;4153875;28;20656;-68
2023/02/13 06:48:34;;;;;;;42.30;15.57;;;-0.10;99.90;;;;;;4153789;28;20627;-68
2023/02/13 06:50:35;;;;;;;66.90;19.63;;;-0.20;99.90;;;;;;4153140;28;20280;-68
2023/02/13 06:52:36;;;;;;;105.90;18.00;;;-0.10;99.90;;;;;;4152926;28;20443;-68
2023/02/13 06:54:37;;;;;;;51.47;16.10;;;0.00;99.90;;;;;;4169274;28;20263;-68
2023/02/13 06:56:37;;;;;;;43.77;14.40;;;0.00;99.90;;;;;;4152907;28;20213;-68
2023/02/13 06:58:38;;;;;;;45.43;15.80;;;0.00;99.90;;;;;;4153824;28;20213;-68
2023/02/13 07:00:39;;;;;;;45.07;15.10;;;-0.10;99.90;;;;;;4153953;28;20194;-69
2023/02/13 07:02:41;;;;;;;43.90;15.93;;;0.10;99.90;;;;;;4154131;28;20490;-68
2023/02/13 07:04:42;;;;;;;47.90;16.17;;;0.20;99.90;;;;;;4152792;28;20250;-69
2023/02/13 07:06:43;;;;;;;33.43;14.20;;;0.20;99.90;;;;;;4153965;28;20460;-67
2023/02/13 07:08:43;;;;;;;25.17;11.47;;;0.20;99.90;;;;;;4153833;28;20213;-68
2023/02/13 07:10:44;;;;;;;33.57;14.47;;;0.20;99.90;;;;;;4153836;28;20627;-69
2023/02/13 07:12:45;;;;;;;29.67;13.20;;;0.20;99.90;;;;;;4144193;28;20403;-67
2023/02/13 07:14:46;;;;;;;24.57;11.73;;;0.30;99.90;;;;;;4155279;28;20221;-69
2023/02/13 07:16:46;;;;;;;37.07;13.70;;;0.40;99.90;;;;;;4153002;28;20188;-69
2023/02/13 07:18:47;;;;;;;27.97;14.13;;;0.30;99.90;;;;;;4155224;28;20253;-69
2023/02/13 07:20:48;;;;;;;25.70;11.70;;;0.30;99.90;;;;;;4155573;28;20182;-68
2023/02/13 07:22:49;;;;;;;25.80;12.47;;;0.20;99.90;;;;;;4156727;28;20180;-68
2023/02/13 07:24:49;;;;;;;26.53;11.10;;;0.20;99.90;;;;;;4156807;28;20189;-68
2023/02/13 07:26:50;;;;;;;23.07;10.77;;;0.20;99.90;;;;;;4156716;28;20185;-68
2023/02/13 07:28:51;;;;;;;39.40;12.93;;;0.10;99.90;;;;;;4156503;28;20217;-68
2023/02/13 07:30:52;;;;;;;27.63;12.57;;;0.00;99.90;;;;;;4155272;28;20623;-68
2023/02/13 07:32:53;;;;;;;20.43;10.37;;;-0.10;99.90;;;;;;4156648;28;20471;-69
2023/02/13 07:34:54;;;;;;;51.70;14.73;;;-0.10;99.90;;;;;;4155161;28;20243;-68
2023/02/13 07:36:54;;;;;;;25.53;12.00;;;-0.10;99.90;;;;;;4156328;28;20181;-68
2023/02/13 07:38:55;;;;;;;27.30;11.00;;;0.00;99.90;;;;;;4156213;28;20351;-69
2023/02/13 07:41:00;;;;;;;27.13;11.80;;;0.00;99.90;;;;;;4156262;28;20203;-69
2023/02/13 07:43:01;;;;;;;53.30;14.47;;;0.10;99.90;;;;;;4154977;28;20717;-68
2023/02/13 07:45:04;;;;;;;27.43;11.77;;;0.20;99.90;;;;;;4163207;28;20473;-68
2023/02/13 07:47:05;;;;;;;30.10;13.57;;;0.10;99.90;;;;;;4156062;28;20199;-69
2023/02/13 07:49:05;;;;;;;77.57;15.23;;;0.20;99.90;;;;;;4155745;28;20474;-69
2023/02/13 07:51:06;;;;;;;42.13;13.10;;;0.10;99.90;;;;;;4156224;28;20194;-68
2023/02/13 07:53:08;;;;;;;54.93;16.13;;;0.10;99.90;;;;;;4155876;28;20201;-68
2023/02/13 07:55:10;;;;;;;75.97;15.47;;;0.10;99.90;;;;;;4156053;28;20228;-68
2023/02/13 07:57:11;;;;;;;61.47;15.23;;;0.10;99.90;;;;;;4138215;28;20501;-69
2023/02/13 07:59:11;;;;;;;34.87;12.37;;;0.10;99.90;;;;;;4150507;28;20522;-68
2023/02/13 08:01:15;;;;;;;78.33;15.53;;;0.10;99.90;;;;;;4156969;28;20189;-69
2023/02/13 08:03:16;;;;;;;44.20;12.60;;;0.20;99.90;;;;;;4158989;28;20189;-70
2023/02/13 08:05:16;;;;;;;32.80;12.00;;;0.20;99.90;;;;;;4155806;28;20421;-70
2023/02/13 08:07:17;;;;;;;89.93;16.47;;;0.30;99.90;;;;;;4153101;28;20615;-68
2023/02/13 08:11:54;;;;;;;135.50;19.17;;;0.30;99.90;;;;;;4156930;28;20277;-70
2023/02/13 08:13:54;;;;;;;71.73;17.00;;;0.40;99.90;;;;;;4139909;28;20437;-70
2023/02/13 08:15:55;;;;;;;28.90;12.17;;;0.40;99.90;;;;;;4170252;28;20510;-70
2023/02/13 08:17:56;;;;;;;29.27;11.67;;;0.40;99.90;;;;;;4151239;28;20190;-70
2023/02/13 08:19:57;;;;;;;39.83;14.23;;;0.50;99.90;;;;;;4156093;28;20185;-70
2023/02/13 08:21:58;;;;;;;48.37;13.77;;;0.60;99.90;;;;;;4154015;28;20247;-69
2023/02/13 08:23:58;;;;;;;30.37;12.73;;;0.70;99.90;;;;;;4154755;28;20782;-69
2023/02/13 08:26:00;;;;;;;34.10;12.67;;;0.90;99.90;;;;;;4153901;28;20177;-70
2023/02/13 08:28:01;;;;;;;37.60;12.07;;;1.20;99.90;;;;;;4155988;28;20191;-69
2023/02/13 08:30:04;;;;;;;68.17;17.20;;;1.30;99.90;;;;;;4154856;28;20428;-70
2023/02/13 08:32:06;;;;;;;159.73;23.33;;;1.20;99.90;;;;;;4150067;28;20658;-70
2023/02/13 08:34:06;;;;;;;51.67;15.00;;;1.00;99.90;;;;;;4157142;28;20478;-67
2023/02/13 08:36:08;;;;;;;164.73;20.30;;;1.00;99.90;;;;;;4142033;28;20468;-69
2023/02/13 08:38:08;;;;;;;126.83;19.13;;;1.20;99.90;;;;;;4149885;28;20186;-70
2023/02/13 08:40:10;;;;;;;214.77;19.10;;;1.10;99.90;;;;;;4158736;28;20531;-69
2023/02/13 08:42:10;;;;;;;104.93;14.77;;;1.00;99.90;;;;;;4153013;28;20199;-68
2023/02/13 08:44:11;;;;;;;80.97;16.73;;;0.90;99.90;;;;;;4154721;28;20421;-70
2023/02/13 08:46:12;;;;;;;68.93;13.17;;;1.00;99.90;;;;;;4154643;28;20208;-69
2023/02/13 08:48:12;;;;;;;106.93;14.07;;;1.00;99.90;;;;;;4154287;28;20190;-69
2023/02/13 08:50:13;;;;;;;192.20;22.03;;;1.10;99.90;;;;;;4153991;28;20193;-68
2023/02/13 08:52:14;;;;;;;178.77;18.27;;;1.10;99.90;;;;;;4155305;28;20187;-68
2023/02/13 08:54:15;;;;;;;68.17;16.73;;;1.10;99.90;;;;;;4155426;28;20370;-69
2023/02/13 08:56:15;;;;;;;57.53;13.97;;;1.20;99.90;;;;;;4157061;28;20209;-67
2023/02/13 08:58:16;;;;;;;124.00;19.03;;;1.20;99.90;;;;;;4153231;28;21002;-68
2023/02/13 09:00:17;;;;;;;106.97;14.67;;;1.30;99.90;;;;;;4151187;28;20242;-68
2023/02/13 09:02:18;;;;;;;81.77;16.30;;;1.30;99.90;;;;;;4145194;28;20248;-68
2023/02/13 09:04:19;;;;;;;48.93;11.70;;;1.30;99.90;;;;;;4153495;28;20427;-70
2023/02/13 09:06:20;;;;;;;78.33;19.17;;;1.50;99.90;;;;;;4154504;28;20241;-68
2023/02/13 09:08:21;;;;;;;20.30;8.60;;;1.70;99.90;;;;;;4152589;28;20984;-69
2023/02/13 09:10:22;;;;;;;57.83;10.73;;;1.60;99.90;;;;;;4154362;28;20472;-66
2023/02/13 09:12:22;;;;;;;136.17;15.60;;;1.60;99.90;;;;;;4158450;28;20246;-68
2023/02/13 09:14:23;;;;;;;44.13;12.00;;;1.90;99.90;;;;;;4154650;28;20249;-69
2023/02/13 09:16:24;;;;;;;61.00;12.57;;;1.80;99.90;;;;;;4155740;28;20207;-70
2023/02/13 09:18:26;;;;;;;39.40;12.03;;;2.00;99.90;;;;;;4153814;28;20728;-70
2023/02/13 09:20:27;;;;;;;64.27;15.63;;;2.00;99.90;;;;;;4154442;28;20571;-70
2023/02/13 09:22:28;;;;;;;73.93;12.50;;;2.10;99.90;;;;;;4151535;28;20428;-70
2023/02/13 09:24:28;;;;;;;35.23;11.43;;;2.10;99.90;;;;;;4153488;28;20181;-70
2023/02/13 09:26:29;;;;;;;62.17;10.23;;;2.10;99.90;;;;;;4154440;28;20178;-70
2023/02/13 09:28:32;;;;;;;23.10;8.07;;;2.30;99.90;;;;;;4152531;28;20231;-70
2023/02/13 09:30:33;;;;;;;51.80;14.50;;;2.30;99.90;;;;;;4153241;28;20191;-70
2023/02/13 09:32:36;;;;;;;53.23;13.13;;;2.50;99.90;;;;;;4151198;28;20935;-69
2023/02/13 09:34:37;;;;;;;30.00;10.20;;;2.60;99.90;;;;;;4153357;28;20191;-68
2023/02/13 09:36:37;;;;;;;130.23;20.07;;;2.70;99.90;;;;;;4152842;28;20438;-67
2023/02/13 09:38:38;;;;;;;66.17;12.07;;;2.50;99.90;;;;;;4153612;28;20220;-68
2023/02/13 09:40:52;;;;;;;15.47;7.97;;;2.50;99.90;;;;;;4154844;28;20311;-67
2023/02/13 09:43:09;;;;;;;29.43;7.77;;;2.40;99.90;;;;;;4152037;28;20599;-68
2023/02/13 09:45:13;;;;;;;13.87;8.70;;;2.70;99.90;;;;;;4138338;28;20440;-68
2023/02/13 09:47:30;;;;;;;25.60;8.70;;;2.80;99.90;;;;;;4153064;28;20446;-69
2023/02/13 09:49:35;;;;;;;22.10;8.67;;;2.80;99.90;;;;;;4154935;28;20494;-69
2023/02/13 09:51:36;;;;;;;15.77;7.77;;;3.20;99.90;;;;;;4136779;28;20440;-69
2023/02/13 09:53:42;;;;;;;52.43;10.00;;;3.30;99.90;;;;;;4153537;28;20431;-68
2023/02/13 09:55:52;;;;;;;34.53;8.30;;;3.40;99.90;;;;;;4145452;28;20192;-68
2023/02/13 09:58:10;;;;;;;13.97;6.80;;;3.40;99.90;;;;;;4152316;28;20575;-68
2023/02/13 10:00:34;;;;;;;13.77;6.53;;;3.60;99.90;;;;;;4153802;28;20425;-69
2023/02/13 10:02:56;;;;;;;19.20;7.17;;;3.80;99.90;;;;;;4145973;28;21026;-68
2023/02/13 10:05:43;;;;;;;10.37;6.83;;;4.00;99.90;;;;;;4123419;28;20957;-69
2023/02/13 10:07:50;;;;;;;11.87;6.90;;;3.80;99.90;;;;;;4116143;28;20436;-68
2023/02/13 10:10:35;;;;;;;19.33;8.60;;;3.90;99.90;;;;;;4117618;28;20527;-68
2023/02/13 10:13:14;;;;;;;11.60;7.00;;;4.00;99.90;;;;;;4097096;28;20436;-69
2023/02/13 10:15:27;;;;;;;9.13;6.27;;;4.30;99.90;;;;;;4079197;28;20555;-66
2023/02/13 10:17:34;;;;;;;14.87;7.47;;;4.60;99.90;;;;;;4127769;28;20718;-67
2023/02/13 10:19:54;;;;;;;11.07;6.87;;;4.60;99.90;;;;;;4118305;28;20914;-67
2023/02/13 10:22:14;;;;;;;8.13;5.97;;;4.70;99.90;;;;;;4119791;28;20275;-66
2023/02/13 10:24:36;;;;;;;16.37;7.20;;;5.10;99.90;;;;;;4144730;28;20172;-67
2023/02/13 10:26:44;;;;;;;13.33;7.03;;;5.10;99.90;;;;;;4118997;28;21909;-69
2023/02/13 10:31:22;;;;;;;9.17;6.00;;;5.10;99.80;;;;;;4120832;28;20318;-69
2023/02/13 10:33:38;;;;;;;11.07;6.60;;;5.60;99.90;;;;;;4131828;28;21090;-69
2023/02/13 10:35:40;;;;;;;13.43;6.27;;;5.30;99.90;;;;;;4122461;28;20196;-67
2023/02/13 10:37:41;;;;;;;15.87;6.30;;;5.30;99.90;;;;;;4124376;28;20224;-69
2023/02/13 10:39:49;;;;;;;12.07;7.43;;;5.30;99.20;;;;;;4115312;28;20272;-66
2023/02/13 10:42:17;;;;;;;7.93;5.80;;;5.00;99.90;;;;;;4123187;28;20207;-69
2023/02/13 10:44:37;;;;;;;19.53;7.10;;;5.20;99.90;;;;;;4120778;28;20244;-67
2023/02/13 10:47:25;;;;;;;11.17;6.73;;;4.80;99.90;;;;;;4116941;28;20743;-69
2023/02/13 10:49:50;;;;;;;11.47;6.40;;;4.80;99.90;;;;;;4102933;28;20217;-70
2023/02/13 10:52:03;;;;;;;8.97;5.90;;;4.70;99.90;;;;;;4119393;28;20290;-70
2023/02/13 10:54:45;;;;;;;8.37;5.73;;;5.00;99.90;;;;;;4135371;28;20264;-66
2023/02/13 10:57:10;;;;;;;10.43;6.87;;;5.30;99.90;;;;;;4120992;28;20247;-69
2023/02/13 10:59:33;;;;;;;9.83;6.47;;;5.40;99.90;;;;;;4129688;28;20221;-66
2023/02/13 11:02:02;;;;;;;9.20;6.83;;;5.50;99.90;;;;;;4125703;28;20301;-68
2023/02/13 11:04:11;;;;;;;11.43;6.73;;;6.00;99.90;;;;;;4136329;28;21084;-68
2023/02/13 11:06:15;;;;;;;19.50;8.07;;;6.10;98.10;;;;;;4128948;28;20177;-67
2023/02/13 11:08:39;;;;;;;8.37;6.33;;;6.00;97.80;;;;;;4135625;28;20676;-68
2023/02/13 11:10:40;;;;;;;8.30;6.20;;;6.20;99.10;;;;;;4129672;28;20185;-66
2023/02/13 11:12:41;;;;;;;30.07;8.00;;;6.40;97.50;;;;;;4125215;28;20197;-64
2023/02/13 11:14:54;;;;;;;8.97;6.37;;;6.60;96.00;;;;;;4124422;28;20236;-64
2023/02/13 11:16:57;;;;;;;7.90;5.83;;;6.80;95.70;;;;;;4126668;28;20185;-66
2023/02/13 11:18:58;;;;;;;8.13;6.07;;;7.10;96.30;;;;;;4120999;28;20217;-67
2023/02/13 11:21:10;;;;;;;7.63;6.23;;;7.30;94.90;;;;;;4123213;28;20200;-66
2023/02/13 11:23:29;;;;;;;6.73;5.40;;;7.50;94.60;;;;;;4130129;28;20252;-64
2023/02/13 11:25:30;;;;;;;8.30;6.50;;;8.10;94.00;;;;;;4123843;28;20200;-66
2023/02/13 11:27:37;;;;;;;7.03;5.43;;;8.60;90.20;;;;;;4123621;28;20192;-65
2023/02/13 11:29:56;;;;;;;7.70;6.23;;;9.10;89.90;;;;;;4123773;28;20622;-70
2023/02/13 11:32:14;;;;;;;6.90;6.17;;;9.50;89.40;;;;;;4129177;28;20216;-68